sensor_id;sensor_type;location;lat;lon;timestamp;pressure;altitude;pressure_sealevel;temperature;humidity
14800;BME280;7491;57.750;11.970;2023-05-25T00:01:21;75849.75;;;-142.11;100.00
14800;BME280;7491;57.750;11.970;2023-05-25T00:03:50;75874.22;;;-142.11;100.00
14800;BME280;7491;57.750;11.970;2023-05-25T00:06:17;75886.44;;;-142.11;100.00
14800;BME280;7491;57.750;11.970;2023-05-25T00:08:44;75886.44;;;-142.11;100.00
14800;BME280;7491;57.750;11.970;2023-05-25T00:11:12;75890.53;;;-142.11;100.00
14800;BME280;7491;57.750;11.970;2023-05-25T00:13:41;75886.44;;;-142.11;100.00
14800;BME280;7491;57.750;11.970;2023-05-25T00:16:08;75898.66;;;-142.11;100.00
14800;BME280;7491;57.750;11.970;2023-05-25T00:18:34;75908.88;;;-142.11;100.00
14800;BME280;7491;57.750;11.970;2023-05-25T00:21:04;75910.91;;;-142.11;100.00
14800;BME280;7491;57.750;11.970;2023-05-25T00:23:31;75912.94;;;-142.11;100.00
14800;BME280;7491;57.750;11.970;2023-05-25T00:25:59;75929.25;;;-142.11;100.00
14800;BME280;7491;57.750;11.970;2023-05-25T00:28:26;75949.63;;;-142.11;100.00
14800;BME280;7491;57.750;11.970;2023-05-25T00:30:52;75927.22;;;-142.11;100.00
14800;BME280;7491;57.750;11.970;2023-05-25T00:33:20;75939.44;;;-142.11;100.00
14800;BME280;7491;57.750;11.970;2023-05-25T00:35:47;75955.75;;;-142.11;100.00
14800;BME280;7491;57.750;11.970;2023-05-25T00:38:16;75963.91;;;-142.11;100.00
14800;BME280;7491;57.750;11.970;2023-05-25T00:40:43;75959.81;;;-142.11;100.00
14800;BME280;7491;57.750;11.970;2023-05-25T00:43:11;75955.75;;;-142.11;100.00
14800;BME280;7491;57.750;11.970;2023-05-25T00:45:38;75959.81;;;-142.11;100.00
14800;BME280;7491;57.750;11.970;2023-05-25T00:48:05;75974.09;;;-142.11;100.00
14800;BME280;7491;57.750;11.970;2023-05-25T00:50:36;75984.28;;;-142.11;100.00
14800;BME280;7491;57.750;11.970;2023-05-25T00:53:03;76002.63;;;-142.11;100.00
14800;BME280;7491;57.750;11.970;2023-05-25T00:55:35;76006.72;;;-142.11;100.00
14800;BME280;7491;57.750;11.970;2023-05-25T00:58:03;76014.84;;;-142.11;100.00
14800;BME280;7491;57.750;11.970;2023-05-25T01:00:31;76006.72;;;-142.11;100.00
14800;BME280;7491;57.750;11.970;2023-05-25T01:03:04;76031.16;;;-142.11;100.00
14800;BME280;7491;57.750;11.970;2023-05-25T01:05:37;76027.09;;;-142.11;100.00
14800;BME280;7491;57.750;11.970;2023-05-25T01:08:04;76043.41;;;-142.11;100.00
14800;BME280;7491;57.750;11.970;2023-05-25T01:10:34;76031.16;;;-142.11;100.00
14800;BME280;7491;57.750;11.970;2023-05-25T01:13:03;76016.91;;;-142.11;100.00
14800;BME280;7491;57.750;11.970;2023-05-25T01:15:32;76020.97;;;-142.11;100.00
14800;BME280;7491;57.750;11.970;2023-05-25T01:18:00;76012.81;;;-142.11;100.00
14800;BME280;7491;57.750;11.970;2023-05-25T01:20:27;76008.75;;;-142.11;100.00
14800;BME280;7491;57.750;11.970;2023-05-25T01:22:59;76000.59;;;-142.11;100.00
14800;BME280;7491;57.750;11.970;2023-05-25T01:25:33;76008.75;;;-142.11;100.00
14800;BME280;7491;57.750;11.970;2023-05-25T01:28:05;76025.06;;;-142.11;100.00
14800;BME280;7491;57.750;11.970;2023-05-25T01:30:34;76012.81;;;-142.11;100.00
14800;BME280;7491;57.750;11.970;2023-05-25T01:33:02;76016.91;;;-142.11;100.00
14800;BME280;7491;57.750;11.970;2023-05-25T01:35:30;76027.09;;;-142.11;100.00
14800;BME280;7491;57.750;11.970;2023-05-25T01:37:58;76025.06;;;-142.11;100.00
14800;BME280;7491;57.750;11.970;2023-05-25T01:40:26;76018.94;;;-142.11;100.00
14800;BME280;7491;57.750;11.970;2023-05-25T01:42:53;76031.16;;;-142.11;100.00
14800;BME280;7491;57.750;11.970;2023-05-25T01:45:20;76031.16;;;-142.11;100.00
14800;BME280;7491;57.750;11.970;2023-05-25T01:47:53;76037.28;;;-142.11;100.00
14800;BME280;7491;57.750;11.970;2023-05-25T01:50:27;76039.31;;;-142.11;100.00
14800;BME280;7491;57.750;11.970;2023-05-25T01:53:00;76041.34;;;-142.11;100.00
14800;BME280;7491;57.750;11.970;2023-05-25T01:55:29;76045.44;;;-142.11;100.00
14800;BME280;7491;57.750;11.970;2023-05-25T01:57:58;76057.66;;;-142.11;100.00
14800;BME280;7491;57.750;11.970;2023-05-25T02:00:27;76069.91;;;-142.11;100.00
14800;BME280;7491;57.750;11.970;2023-05-25T02:02:56;76067.84;;;-142.11;100.00
14800;BME280;7491;57.750;11.970;2023-05-25T02:05:23;76073.97;;;-142.11;100.00
14800;BME280;7491;57.750;11.970;2023-05-25T02:07:52;76069.91;;;-142.11;100.00
14800;BME280;7491;57.750;11.970;2023-05-25T02:10:20;76082.13;;;-142.11;100.00
14800;BME280;7491;57.750;11.970;2023-05-25T02:12:47;76082.13;;;-142.11;100.00
14800;BME280;7491;57.750;11.970;2023-05-25T02:15:14;76090.28;;;-142.11;100.00
14800;BME280;7491;57.750;11.970;2023-05-25T02:17:41;76096.41;;;-142.11;100.00
14800;BME280;7491;57.750;11.970;2023-05-25T02:20:08;76090.28;;;-142.11;100.00
14800;BME280;7491;57.750;11.970;2023-05-25T02:22:35;76104.56;;;-142.11;100.00
14800;BME280;7491;57.750;11.970;2023-05-25T02:25:02;76118.81;;;-142.11;100.00
14800;BME280;7491;57.750;11.970;2023-05-25T02:27:32;76114.75;;;-142.11;100.00
14800;BME280;7491;57.750;11.970;2023-05-25T02:29:58;76139.22;;;-142.11;100.00
14800;BME280;7491;57.750;11.970;2023-05-25T02:32:25;76139.22;;;-142.11;100.00
14800;BME280;7491;57.750;11.970;2023-05-25T02:34:53;76139.22;;;-142.11;100.00
14800;BME280;7491;57.750;11.970;2023-05-25T02:37:20;76155.50;;;-142.11;100.00
14800;BME280;7491;57.750;11.970;2023-05-25T02:39:46;76147.34;;;-142.11;100.00
14800;BME280;7491;57.750;11.970;2023-05-25T02:42:13;76157.56;;;-142.11;100.00
14800;BME280;7491;57.750;11.970;2023-05-25T02:44:42;76173.84;;;-142.11;100.00
14800;BME280;7491;57.750;11.970;2023-05-25T02:47:12;76157.56;;;-142.11;100.00
14800;BME280;7491;57.750;11.970;2023-05-25T02:49:39;76163.66;;;-142.11;100.00
14800;BME280;7491;57.750;11.970;2023-05-25T02:52:06;76177.94;;;-142.11;100.00
14800;BME280;7491;57.750;11.970;2023-05-25T02:54:32;76179.97;;;-142.11;100.00
14800;BME280;7491;57.750;11.970;2023-05-25T02:57:00;76179.97;;;-142.11;100.00
14800;BME280;7491;57.750;11.970;2023-05-25T02:59:27;76186.09;;;-142.11;100.00
14800;BME280;7491;57.750;11.970;2023-05-25T03:01:57;76188.13;;;-142.11;100.00
14800;BME280;7491;57.750;11.970;2023-05-25T03:04:24;76196.28;;;-142.11;100.00
14800;BME280;7491;57.750;11.970;2023-05-25T03:06:50;76206.47;;;-142.11;100.00
14800;BME280;7491;57.750;11.970;2023-05-25T03:09:17;76206.47;;;-142.11;100.00
14800;BME280;7491;57.750;11.970;2023-05-25T03:11:44;76206.47;;;-142.11;100.00
14800;BME280;7491;57.750;11.970;2023-05-25T03:14:11;76208.50;;;-142.11;100.00
14800;BME280;7491;57.750;11.970;2023-05-25T03:16:38;76208.50;;;-142.11;100.00
14800;BME280;7491;57.750;11.970;2023-05-25T03:19:06;76216.66;;;-142.11;100.00
14800;BME280;7491;57.750;11.970;2023-05-25T03:21:34;76235.00;;;-142.11;100.00
14800;BME280;7491;57.750;11.970;2023-05-25T03:24:01;76235.00;;;-142.11;100.00
14800;BME280;7491;57.750;11.970;2023-05-25T03:26:28;76241.13;;;-142.11;100.00
14800;BME280;7491;57.750;11.970;2023-05-25T03:28:56;76241.13;;;-142.11;100.00
14800;BME280;7491;57.750;11.970;2023-05-25T03:31:23;76241.13;;;-142.11;100.00
14800;BME280;7491;57.750;11.970;2023-05-25T03:33:50;76277.81;;;-142.11;100.00
14800;BME280;7491;57.750;11.970;2023-05-25T03:36:18;76261.50;;;-142.11;100.00
14800;BME280;7491;57.750;11.970;2023-05-25T03:38:46;76273.75;;;-142.11;100.00
14800;BME280;7491;57.750;11.970;2023-05-25T03:41:13;76273.75;;;-142.11;100.00
14800;BME280;7491;57.750;11.970;2023-05-25T03:43:40;76273.75;;;-142.11;100.00
14800;BME280;7491;57.750;11.970;2023-05-25T03:46:06;76279.88;;;-142.11;100.00
14800;BME280;7491;57.750;11.970;2023-05-25T03:48:34;76281.91;;;-142.11;100.00
14800;BME280;7491;57.750;11.970;2023-05-25T03:51:00;76277.81;;;-142.11;100.00
14800;BME280;7491;57.750;11.970;2023-05-25T03:53:29;76275.78;;;-142.11;100.00
14800;BME280;7491;57.750;11.970;2023-05-25T03:55:56;76271.72;;;-142.11;100.00
14800;BME280;7491;57.750;11.970;2023-05-25T03:58:23;76275.78;;;-142.11;100.00
14800;BME280;7491;57.750;11.970;2023-05-25T04:00:50;76277.81;;;-142.11;100.00
14800;BME280;7491;57.750;11.970;2023-05-25T04:03:19;76277.81;;;-142.11;100.00
14800;BME280;7491;57.750;11.970;2023-05-25T04:05:46;76275.78;;;-142.11;100.00
14800;BME280;7491;57.750;11.970;2023-05-25T04:08:14;76271.72;;;-142.11;100.00
14800;BME280;7491;57.750;11.970;2023-05-25T04:10:44;76277.81;;;-142.11;100.00
14800;BME280;7491;57.750;11.970;2023-05-25T04:13:11;76271.72;;;-142.11;100.00
14800;BME280;7491;57.750;11.970;2023-05-25T04:15:38;76279.88;;;-142.11;100.00
14800;BME280;7491;57.750;11.970;2023-05-25T04:18:05;76259.47;;;-142.11;100.00
14800;BME280;7491;57.750;11.970;2023-05-25T04:20:31;76265.59;;;-142.11;100.00
14800;BME280;7491;57.750;11.970;2023-05-25T04:22:58;76265.59;;;-142.11;100.00
14800;BME280;7491;57.750;11.970;2023-05-25T04:25:25;76259.47;;;-142.11;100.00
14800;BME280;7491;57.750;11.970;2023-05-25T04:27:53;76253.38;;;-142.11;100.00
14800;BME280;7491;57.750;11.970;2023-05-25T04:30:21;76247.25;;;-142.11;100.00
14800;BME280;7491;57.750;11.970;2023-05-25T04:32:48;76241.13;;;-142.11;100.00
14800;BME280;7491;57.750;11.970;2023-05-25T04:35:14;76237.06;;;-142.11;100.00
14800;BME280;7491;57.750;11.970;2023-05-25T04:37:45;76224.81;;;-142.11;100.00
14800;BME280;7491;57.750;11.970;2023-05-25T04:40:12;76218.72;;;-142.11;100.00
14800;BME280;7491;57.750;11.970;2023-05-25T04:42:39;76224.81;;;-142.11;100.00
14800;BME280;7491;57.750;11.970;2023-05-25T04:45:08;76232.97;;;-142.11;100.00
14800;BME280;7491;57.750;11.970;2023-05-25T04:47:36;76222.78;;;-142.11;100.00
14800;BME280;7491;57.750;11.970;2023-05-25T04:50:06;76224.81;;;-142.11;100.00
14800;BME280;7491;57.750;11.970;2023-05-25T04:52:33;76243.16;;;-142.11;100.00
14800;BME280;7491;57.750;11.970;2023-05-25T04:55:00;76210.56;;;-142.11;100.00
14800;BME280;7491;57.750;11.970;2023-05-25T04:57:27;76214.63;;;-142.11;100.00
14800;BME280;7491;57.750;11.970;2023-05-25T04:59:55;76216.66;;;-142.11;100.00
14800;BME280;7491;57.750;11.970;2023-05-25T05:02:25;76224.81;;;-142.11;100.00
14800;BME280;7491;57.750;11.970;2023-05-25T05:04:52;76210.56;;;-142.11;100.00
14800;BME280;7491;57.750;11.970;2023-05-25T05:07:19;76200.34;;;-142.11;100.00
14800;BME280;7491;57.750;11.970;2023-05-25T05:09:46;76212.59;;;-142.11;100.00
14800;BME280;7491;57.750;11.970;2023-05-25T05:12:13;76196.28;;;-142.11;100.00
14800;BME280;7491;57.750;11.970;2023-05-25T05:14:39;76194.25;;;-142.11;100.00
14800;BME280;7491;57.750;11.970;2023-05-25T05:17:06;76192.22;;;-142.11;100.00
14800;BME280;7491;57.750;11.970;2023-05-25T05:19:34;76175.91;;;-142.11;100.00
14800;BME280;7491;57.750;11.970;2023-05-25T05:22:01;76173.84;;;-142.11;100.00
14800;BME280;7491;57.750;11.970;2023-05-25T05:24:28;76179.97;;;-142.11;100.00
14800;BME280;7491;57.750;11.970;2023-05-25T05:26:55;76165.72;;;-142.11;100.00
14800;BME280;7491;57.750;11.970;2023-05-25T05:29:21;76147.34;;;-142.11;100.00
14800;BME280;7491;57.750;11.970;2023-05-25T05:31:48;76143.28;;;-142.11;100.00
14800;BME280;7491;57.750;11.970;2023-05-25T05:34:15;76137.16;;;-142.11;100.00
14800;BME280;7491;57.750;11.970;2023-05-25T05:36:43;76135.13;;;-142.11;100.00
14800;BME280;7491;57.750;11.970;2023-05-25T05:39:09;76126.97;;;-142.11;100.00
14800;BME280;7491;57.750;11.970;2023-05-25T05:41:36;76114.75;;;-142.11;100.00
14800;BME280;7491;57.750;11.970;2023-05-25T05:44:03;76098.44;;;-142.11;100.00
14800;BME280;7491;57.750;11.970;2023-05-25T05:46:30;76098.44;;;-142.11;100.00
14800;BME280;7491;57.750;11.970;2023-05-25T05:48:56;76120.84;;;-142.11;100.00
14800;BME280;7491;57.750;11.970;2023-05-25T05:51:23;76116.78;;;-142.11;100.00
14800;BME280;7491;57.750;11.970;2023-05-25T05:53:51;76118.81;;;-142.11;100.00
14800;BME280;7491;57.750;11.970;2023-05-25T05:56:18;76120.84;;;-142.11;100.00
14800;BME280;7491;57.750;11.970;2023-05-25T05:58:46;76098.44;;;-142.11;100.00
14800;BME280;7491;57.750;11.970;2023-05-25T06:01:14;76092.31;;;-142.11;100.00
14800;BME280;7491;57.750;11.970;2023-05-25T06:03:41;76086.19;;;-142.11;100.00
14800;BME280;7491;57.750;11.970;2023-05-25T06:06:08;76088.25;;;-142.11;100.00
14800;BME280;7491;57.750;11.970;2023-05-25T06:08:35;76088.25;;;-142.11;100.00
14800;BME280;7491;57.750;11.970;2023-05-25T06:11:03;76076.00;;;-142.11;100.00
14800;BME280;7491;57.750;11.970;2023-05-25T06:13:29;76065.81;;;-142.11;100.00
14800;BME280;7491;57.750;11.970;2023-05-25T06:15:56;76063.78;;;-142.11;99.81
14800;BME280;7491;57.750;11.970;2023-05-25T06:18:23;76051.56;;;-142.11;97.14
14800;BME280;7491;57.750;11.970;2023-05-25T06:20:49;76057.66;;;-142.11;96.98
14800;BME280;7491;57.750;11.970;2023-05-25T06:23:16;76051.56;;;-142.11;96.80
14800;BME280;7491;57.750;11.970;2023-05-25T06:25:44;76061.75;;;-142.11;94.81
14800;BME280;7491;57.750;11.970;2023-05-25T06:28:12;76053.59;;;-142.11;95.73
14800;BME280;7491;57.750;11.970;2023-05-25T06:30:39;76039.31;;;-142.11;95.06
14800;BME280;7491;57.750;11.970;2023-05-25T06:33:06;76047.47;;;-142.11;91.99
14800;BME280;7491;57.750;11.970;2023-05-25T06:35:34;76039.31;;;-142.11;93.37
14800;BME280;7491;57.750;11.970;2023-05-25T06:38:01;76012.81;;;-142.11;94.67
14800;BME280;7491;57.750;11.970;2023-05-25T06:40:28;76006.72;;;-142.11;90.53
14800;BME280;7491;57.750;11.970;2023-05-25T06:42:55;75992.44;;;-142.11;88.51
14800;BME280;7491;57.750;11.970;2023-05-25T06:45:23;75994.47;;;-142.11;89.88
14800;BME280;7491;57.750;11.970;2023-05-25T06:47:50;75988.34;;;-142.11;86.97
14800;BME280;7491;57.750;11.970;2023-05-25T06:50:17;75959.81;;;-142.11;86.51
14800;BME280;7491;57.750;11.970;2023-05-25T06:52:44;75953.72;;;-142.11;86.59
14800;BME280;7491;57.750;11.970;2023-05-25T06:55:11;75951.66;;;-142.11;86.19
14800;BME280;7491;57.750;11.970;2023-05-25T06:57:38;75945.56;;;-142.11;86.72
14800;BME280;7491;57.750;11.970;2023-05-25T07:00:06;75943.50;;;-142.11;83.89
14800;BME280;7491;57.750;11.970;2023-05-25T07:02:37;75935.38;;;-142.11;83.68
14800;BME280;7491;57.750;11.970;2023-05-25T07:05:05;75933.31;;;-142.11;85.17
14800;BME280;7491;57.750;11.970;2023-05-25T07:07:32;75933.31;;;-142.11;83.03
14800;BME280;7491;57.750;11.970;2023-05-25T07:10:00;75919.06;;;-142.11;84.41
14800;BME280;7491;57.750;11.970;2023-05-25T07:12:26;75925.16;;;-142.11;81.83
14800;BME280;7491;57.750;11.970;2023-05-25T07:14:53;75910.91;;;-142.11;82.08
14800;BME280;7491;57.750;11.970;2023-05-25T07:17:20;75886.44;;;-142.11;83.28
14800;BME280;7491;57.750;11.970;2023-05-25T07:19:49;75864.03;;;-142.11;82.43
14800;BME280;7491;57.750;11.970;2023-05-25T07:22:16;75888.47;;;-142.11;82.80
14800;BME280;7491;57.750;11.970;2023-05-25T07:24:43;75876.25;;;-142.11;81.36
14800;BME280;7491;57.750;11.970;2023-05-25T07:27:10;75853.81;;;-142.11;81.58
14800;BME280;7491;57.750;11.970;2023-05-25T07:29:38;75825.28;;;-142.11;82.15
14800;BME280;7491;57.750;11.970;2023-05-25T07:32:06;75804.91;;;-142.11;83.11
14800;BME280;7491;57.750;11.970;2023-05-25T07:34:33;75817.13;;;-142.11;81.33
14800;BME280;7491;57.750;11.970;2023-05-25T07:37:02;75811.03;;;-142.11;81.16
14800;BME280;7491;57.750;11.970;2023-05-25T07:39:29;75788.59;;;-142.11;82.03
14800;BME280;7491;57.750;11.970;2023-05-25T07:41:55;75796.75;;;-142.11;81.02
14800;BME280;7491;57.750;11.970;2023-05-25T07:44:22;75790.63;;;-142.11;82.36
14800;BME280;7491;57.750;11.970;2023-05-25T07:46:50;75821.22;;;-142.11;81.51
14800;BME280;7491;57.750;11.970;2023-05-25T07:49:17;75778.41;;;-142.11;82.51
14800;BME280;7491;57.750;11.970;2023-05-25T07:51:44;75798.78;;;-142.11;81.16
14800;BME280;7491;57.750;11.970;2023-05-25T07:54:12;75819.19;;;-142.11;81.23
14800;BME280;7491;57.750;11.970;2023-05-25T07:56:39;75794.72;;;-142.11;81.16
14800;BME280;7491;57.750;11.970;2023-05-25T07:59:06;75774.34;;;-142.11;81.23
14800;BME280;7491;57.750;11.970;2023-05-25T08:01:34;75833.44;;;-142.11;81.67
14800;BME280;7491;57.750;11.970;2023-05-25T08:04:01;75851.78;;;-142.11;80.07
14800;BME280;7491;57.750;11.970;2023-05-25T08:06:29;75829.38;;;-142.11;81.07
14800;BME280;7491;57.750;11.970;2023-05-25T08:08:56;75808.97;;;-142.11;81.28
14800;BME280;7491;57.750;11.970;2023-05-25T08:11:25;75802.88;;;-142.11;79.99
14800;BME280;7491;57.750;11.970;2023-05-25T08:13:52;75808.97;;;-142.11;80.91
14800;BME280;7491;57.750;11.970;2023-05-25T08:16:19;75811.03;;;-142.11;80.71
14800;BME280;7491;57.750;11.970;2023-05-25T08:18:46;75825.28;;;-142.11;79.71
14800;BME280;7491;57.750;11.970;2023-05-25T08:21:13;75839.56;;;-142.11;80.33
14800;BME280;7491;57.750;11.970;2023-05-25T08:23:40;75825.28;;;-142.11;80.33
14800;BME280;7491;57.750;11.970;2023-05-25T08:26:08;75806.94;;;-142.11;78.84
14800;BME280;7491;57.750;11.970;2023-05-25T08:28:37;75804.91;;;-142.11;78.16
14800;BME280;7491;57.750;11.970;2023-05-25T08:31:04;75811.03;;;-142.11;80.76
14800;BME280;7491;57.750;11.970;2023-05-25T08:33:31;75815.09;;;-142.11;80.07
14800;BME280;7491;57.750;11.970;2023-05-25T08:35:58;75815.09;;;-142.11;80.30
14800;BME280;7491;57.750;11.970;2023-05-25T08:38:25;75827.34;;;-142.11;78.91
14800;BME280;7491;57.750;11.970;2023-05-25T08:41:02;75815.09;;;-142.11;80.89
14800;BME280;7491;57.750;11.970;2023-05-25T08:43:30;75800.84;;;-142.11;79.56
14800;BME280;7491;57.750;11.970;2023-05-25T08:46:02;75800.84;;;-142.11;79.03
14800;BME280;7491;57.750;11.970;2023-05-25T08:48:30;75815.09;;;-142.11;79.12
14800;BME280;7491;57.750;11.970;2023-05-25T08:50:59;75843.63;;;-142.11;78.65
14800;BME280;7491;57.750;11.970;2023-05-25T08:53:27;75829.38;;;-142.11;79.71
14800;BME280;7491;57.750;11.970;2023-05-25T08:55:56;75817.13;;;-142.11;79.62
14800;BME280;7491;57.750;11.970;2023-05-25T08:58:29;75806.94;;;-142.11;78.88
14800;BME280;7491;57.750;11.970;2023-05-25T09:01:01;75786.56;;;-142.11;79.78
14800;BME280;7491;57.750;11.970;2023-05-25T09:03:32;75796.75;;;-142.11;79.06
14800;BME280;7491;57.750;11.970;2023-05-25T09:05:59;75813.06;;;-142.11;77.62
14800;BME280;7491;57.750;11.970;2023-05-25T09:08:27;75798.78;;;-142.11;77.20
14800;BME280;7491;57.750;11.970;2023-05-25T09:10:55;75796.75;;;-142.11;77.32
14800;BME280;7491;57.750;11.970;2023-05-25T09:13:22;75819.19;;;-142.11;76.29
14800;BME280;7491;57.750;11.970;2023-05-25T09:15:49;75825.28;;;-142.11;75.48
14800;BME280;7491;57.750;11.970;2023-05-25T09:18:18;75833.44;;;-142.11;76.67
14800;BME280;7491;57.750;11.970;2023-05-25T09:20:45;75841.59;;;-142.11;76.35
14800;BME280;7491;57.750;11.970;2023-05-25T09:23:13;75823.25;;;-142.11;77.41
14800;BME280;7491;57.750;11.970;2023-05-25T09:25:40;75819.19;;;-142.11;77.09
14800;BME280;7491;57.750;11.970;2023-05-25T09:28:08;75806.94;;;-142.11;75.75
14800;BME280;7491;57.750;11.970;2023-05-25T09:30:35;75804.91;;;-142.11;75.44
14800;BME280;7491;57.750;11.970;2023-05-25T09:33:08;75782.50;;;-142.11;74.80
14800;BME280;7491;57.750;11.970;2023-05-25T09:35:37;75823.25;;;-142.11;74.28
14800;BME280;7491;57.750;11.970;2023-05-25T09:38:05;75823.25;;;-142.11;74.75
14800;BME280;7491;57.750;11.970;2023-05-25T09:40:32;75811.03;;;-142.11;75.10
14800;BME280;7491;57.750;11.970;2023-05-25T09:43:01;75813.06;;;-142.11;74.68
14800;BME280;7491;57.750;11.970;2023-05-25T09:45:28;75825.28;;;-142.11;74.44
14800;BME280;7491;57.750;11.970;2023-05-25T09:47:56;75821.22;;;-142.11;74.50
14800;BME280;7491;57.750;11.970;2023-05-25T09:50:23;75813.06;;;-142.11;73.63
14800;BME280;7491;57.750;11.970;2023-05-25T09:52:56;75815.09;;;-142.11;75.77
14800;BME280;7491;57.750;11.970;2023-05-25T09:55:26;75796.75;;;-142.11;77.40
14800;BME280;7491;57.750;11.970;2023-05-25T09:57:53;75808.97;;;-142.11;77.04
14800;BME280;7491;57.750;11.970;2023-05-25T10:00:20;75806.94;;;-142.11;78.08
14800;BME280;7491;57.750;11.970;2023-05-25T10:02:47;75817.13;;;-142.11;77.39
14800;BME280;7491;57.750;11.970;2023-05-25T10:05:14;75827.34;;;-142.11;77.27
14800;BME280;7491;57.750;11.970;2023-05-25T10:07:43;75813.06;;;-142.11;78.71
14800;BME280;7491;57.750;11.970;2023-05-25T10:10:14;75819.19;;;-142.11;78.11
14800;BME280;7491;57.750;11.970;2023-05-25T10:12:42;75835.47;;;-142.11;78.14
14800;BME280;7491;57.750;11.970;2023-05-25T10:15:11;75833.44;;;-142.11;80.36
14800;BME280;7491;57.750;11.970;2023-05-25T10:17:42;75853.81;;;-142.11;79.25
14800;BME280;7491;57.750;11.970;2023-05-25T10:20:11;75861.97;;;-142.11;79.19
14800;BME280;7491;57.750;11.970;2023-05-25T10:22:43;75868.09;;;-142.11;79.39
14800;BME280;7491;57.750;11.970;2023-05-25T10:25:16;75866.06;;;-142.11;79.58
14800;BME280;7491;57.750;11.970;2023-05-25T10:27:46;75874.22;;;-142.11;81.70
14800;BME280;7491;57.750;11.970;2023-05-25T10:30:15;75847.72;;;-142.11;80.81
14800;BME280;7491;57.750;11.970;2023-05-25T10:32:43;75829.38;;;-142.11;80.95
14800;BME280;7491;57.750;11.970;2023-05-25T10:35:13;75874.22;;;-142.11;78.82
14800;BME280;7491;57.750;11.970;2023-05-25T10:37:40;75868.09;;;-142.11;80.09
14800;BME280;7491;57.750;11.970;2023-05-25T10:40:08;75861.97;;;-142.11;80.64
14800;BME280;7491;57.750;11.970;2023-05-25T10:42:39;75861.97;;;-142.11;79.89
14800;BME280;7491;57.750;11.970;2023-05-25T10:45:08;75870.13;;;-142.11;79.88
14800;BME280;7491;57.750;11.970;2023-05-25T10:47:36;75853.81;;;-142.11;81.13
14800;BME280;7491;57.750;11.970;2023-05-25T10:50:17;75837.53;;;-142.11;80.75
14800;BME280;7491;57.750;11.970;2023-05-25T10:52:44;75839.56;;;-142.11;79.68
14800;BME280;7491;57.750;11.970;2023-05-25T10:55:11;75841.59;;;-142.11;81.55
14800;BME280;7491;57.750;11.970;2023-05-25T10:57:39;75859.94;;;-142.11;79.76
14800;BME280;7491;57.750;11.970;2023-05-25T11:00:07;75870.13;;;-142.11;80.13
14800;BME280;7491;57.750;11.970;2023-05-25T11:02:47;75861.97;;;-142.11;79.66
14800;BME280;7491;57.750;11.970;2023-05-25T11:05:32;75849.75;;;-142.11;80.48
14800;BME280;7491;57.750;11.970;2023-05-25T11:08:00;75874.22;;;-142.11;80.57
14800;BME280;7491;57.750;11.970;2023-05-25T11:10:52;75833.44;;;-142.11;80.71
14800;BME280;7491;57.750;11.970;2023-05-25T11:13:33;75855.88;;;-142.11;80.00
14800;BME280;7491;57.750;11.970;2023-05-25T11:16:08;75847.72;;;-142.11;80.99
14800;BME280;7491;57.750;11.970;2023-05-25T11:18:38;75841.59;;;-142.11;80.30
14800;BME280;7491;57.750;11.970;2023-05-25T11:21:13;75835.47;;;-142.11;80.66
14800;BME280;7491;57.750;11.970;2023-05-25T11:23:54;75845.69;;;-142.11;80.07
14800;BME280;7491;57.750;11.970;2023-05-25T11:26:23;75857.91;;;-142.11;80.89
14800;BME280;7491;57.750;11.970;2023-05-25T11:28:52;75843.63;;;-142.11;80.91
14800;BME280;7491;57.750;11.970;2023-05-25T11:31:20;75837.53;;;-142.11;80.99
14800;BME280;7491;57.750;11.970;2023-05-25T11:33:54;75847.72;;;-142.11;78.81
14800;BME280;7491;57.750;11.970;2023-05-25T11:36:22;75870.13;;;-142.11;76.42
14800;BME280;7491;57.750;11.970;2023-05-25T11:38:51;75882.38;;;-142.11;79.40
14800;BME280;7491;57.750;11.970;2023-05-25T11:41:18;75857.91;;;-142.11;80.24
14800;BME280;7491;57.750;11.970;2023-05-25T11:43:47;75849.75;;;-142.11;78.49
14800;BME280;7491;57.750;11.970;2023-05-25T11:46:16;75839.56;;;-142.11;79.73
14800;BME280;7491;57.750;11.970;2023-05-25T11:48:45;75853.81;;;-142.11;78.39
14800;BME280;7491;57.750;11.970;2023-05-25T11:51:16;75861.97;;;-142.11;77.01
14800;BME280;7491;57.750;11.970;2023-05-25T11:53:44;75894.59;;;-142.11;76.05
14800;BME280;7491;57.750;11.970;2023-05-25T11:56:12;75904.78;;;-142.11;77.07
14800;BME280;7491;57.750;11.970;2023-05-25T11:58:40;75921.09;;;-142.11;76.29
14800;BME280;7491;57.750;11.970;2023-05-25T12:01:15;75923.13;;;-142.11;77.38
14800;BME280;7491;57.750;11.970;2023-05-25T12:03:43;75912.94;;;-142.11;78.82
14800;BME280;7491;57.750;11.970;2023-05-25T12:06:22;75878.28;;;-142.11;79.65
14800;BME280;7491;57.750;11.970;2023-05-25T12:08:49;75874.22;;;-142.11;81.48
14800;BME280;7491;57.750;11.970;2023-05-25T12:11:16;75878.28;;;-142.11;81.35
14800;BME280;7491;57.750;11.970;2023-05-25T12:13:44;75864.03;;;-142.11;82.58
14800;BME280;7491;57.750;11.970;2023-05-25T12:16:11;75880.31;;;-142.11;84.04
14800;BME280;7491;57.750;11.970;2023-05-25T12:18:39;75886.44;;;-142.11;83.53
14800;BME280;7491;57.750;11.970;2023-05-25T12:21:06;75908.88;;;-142.11;82.71
14800;BME280;7491;57.750;11.970;2023-05-25T12:23:35;75898.66;;;-142.11;84.51
14800;BME280;7491;57.750;11.970;2023-05-25T12:26:08;75898.66;;;-142.11;84.49
14800;BME280;7491;57.750;11.970;2023-05-25T12:28:36;75921.09;;;-142.11;84.38
14800;BME280;7491;57.750;11.970;2023-05-25T12:31:21;75935.38;;;-142.11;84.22
14800;BME280;7491;57.750;11.970;2023-05-25T12:34:06;75923.13;;;-142.11;84.53
14800;BME280;7491;57.750;11.970;2023-05-25T12:36:44;75931.28;;;-142.11;83.32
14800;BME280;7491;57.750;11.970;2023-05-25T12:39:13;75941.47;;;-142.11;82.95
14800;BME280;7491;57.750;11.970;2023-05-25T12:41:42;75955.75;;;-142.11;84.96